NCAR-RAP Real-Time Weather Data

Output produced by METARs form (10 April 2020  07:15 UTC)
found at http://weather.rap.ucar.edu/surface/
 
KINL 100655Z AUTO 30006KT 10SM OVC038 M04/M09 A3001 RMK AO2 SLP182 T10441089
KINL 100555Z AUTO 30006KT 10SM OVC041 M03/M08 A3001 RMK AO2 SLP182 60000 T10331083 11011 21033 400171039 50001
KINL 100455Z AUTO 31008KT 10SM OVC042 M03/M08 A3001 RMK AO2 SLP182 T10331083
KINL 100355Z AUTO 31009G17KT 10SM OVC045 M03/M08 A3001 RMK AO2 SLP183 T10331083
KINL 100255Z AUTO 30010KT 10SM OVC047 M03/M08 A3001 RMK AO2 SLP181 60000 T10281083 51013
KINL 100155Z AUTO 30009KT 10SM FEW027 OVC045 M02/M08 A3000 RMK AO2 SNB22E37 SLP178 P0000 T10221078
KINL 100140Z AUTO 30012G20KT 10SM SCT027 OVC045 M02/M08 A3000 RMK AO2 SNB22E37 P0000 T10221078
KINL 100131Z AUTO 30014G20KT 9SM -SN BKN027 OVC045 M02/M07 A2999 RMK AO2 SNB22 P0000 T10221072
KINL 100055Z AUTO 31012G21KT 10SM OVC039 M02/M07 A2999 RMK AO2 SNE00 SLP173 P0000 T10171067
KINL 092355Z AUTO 31014G21KT 10SM -SN FEW030 OVC039 M01/M07 A2997 RMK AO2 SNE12B54 SLP168 P0000 60000 T10111067 10017 21011 53011
KINL 092255Z AUTO 30014G23KT 9SM -SN BKN034 OVC042 M01/M07 A2996 RMK AO2 PK WND 33026/2228 SNB30 SLP162 P0000 T10061067
KINL 092222Z AUTO 32013G20KT 10SM OVC032 00/M06 A2995 RMK AO2 T00001061
KINL 092155Z AUTO 31013G24KT 10SM OVC027 00/M06 A2994 RMK AO2 UPB02E10SNE02 SLP156 P0000 T00001061
KINL 092150Z AUTO 30014G24KT 10SM BKN027 OVC036 00/M06 A2994 RMK AO2 UPB02E10SNE02 P0000
KINL 092122Z AUTO 31017G24KT 10SM FEW027 OVC035 00/M06 A2992 RMK AO2 UPB02E10SNE02 P0000 T00001056
KINL 092055Z AUTO 30010G22KT 10SM -SN BKN028 BKN035 OVC044 01/M06 A2992 RMK AO2 SNB52 SLP151 P0000 60000 T00061056 53009
KINL 091955Z AUTO 32017G24KT 10SM SCT037 OVC047 01/M06 A2991 RMK AO2 PK WND 32029/1932 SLP145 T00111056
KINL 091855Z AUTO 32010G22KT 10SM BKN030 OVC037 01/M06 A2990 RMK AO2 SLP143 T00111056
KINL 091830Z AUTO 32015G24KT 10SM BKN030 OVC039 01/M05 A2989 RMK AO2 T00061050
KINL 091755Z AUTO 34014G22KT 10SM OVC028 01/M05 A2989 RMK AO2 SLP141 60000 T00061050 10006 21039 53020
KINL 091655Z AUTO 32017KT 10SM BKN025 BKN032 OVC043 M01/M05 A2988 RMK AO2 PK WND 32026/1637 SNE41 SLP135 P0000 T10061050
KINL 091624Z AUTO 32016G23KT 3SM -SN SCT020 BKN026 OVC031 M01/M05 A2987 RMK AO2 P0000 T10111050
KINL 091614Z AUTO 32011G20KT 1 3/4SM -SN BKN023 OVC029 M01/M05 A2986 RMK AO2 P0000 T10111050
KINL 091555Z AUTO 32010KT 8SM -SN OVC025 M02/M06 A2985 RMK AO2 SNB24 SLP126 P0000 T10171061
KINL 091531Z AUTO 31010KT 6SM -SN BKN026 BKN030 OVC046 M02/M06 A2984 RMK AO2 SNB24 P0000 T10171061
KINL 091455Z AUTO 32016KT 10SM SCT019 SCT025 OVC065 M02/M07 A2983 RMK AO2 SLP121 T10221067 51020
KINL 091355Z AUTO 32014KT 10SM FEW018 M02/M06 A2981 RMK AO2 SLP114 T10221061
KINL 091255Z AUTO 32011G18KT 10SM FEW017 SCT075 M03/M07 A2980 RMK AO2 SLP108 T10331067
KINL 091155Z AUTO 31010KT 10SM FEW033 M04/M07 A2977 RMK AO2 SLP099 60000 70004 T10391067 11028 21039 53016
KINL 091055Z AUTO 30007KT 10SM FEW045 OVC080 M03/M06 A2975 RMK AO2 SNB20E41 SLP089 P0000 T10331056
KINL 090955Z AUTO 31007KT 10SM BKN035 OVC080 M03/M05 A2973 RMK AO2 SLP081 T10281050
KINL 090855Z AUTO 31006KT 10SM OVC085 M03/M05 A2972 RMK AO2 SLP079 T10281050 55001